San Benito, TX

3:29 AM CDT on November 01, 2014 (GMT -0500)
Valley International | Change Station
CLOSE
Current Station
Airport
Location: Harlingen,
Elevation: 36 ft
Nearby Weather Stations

Elev 36 ft 26.23 °N, 97.65 °W | Updated 37 minutes ago

Clear
Clear
56 °F
Feels Like 56 °F
N
7
Wind Variable Wind from NW

Today
High -- | Low -- °F
--% Chance of Precip.
Yesterday
High -- | Low -- °F
Precip. -- in
7:39 AM 6:48 PM
Waxing Gibbous, 64% visible
Pressure 30.21 in
Visibility 10.0 miles
Clouds Clear
Dew Point 54 °F
Humidity 93%
Rainfall 0.00 in
Snow Depth Not available.
UV 0 out of 12
Pollen 4.50 out of 12
Air Quality Not available.
Flu Activity Not available.
METAR KHRL 010752Z 31006KT 10SM CLR 13/12 A3021 RMK AO2 SLP230 T01330122 $

More Conditions Fewer Conditions

Pressure 30.21 in
Visibility 10.0 miles
Clouds Clear
Dew Point 54 °F
Humidity 93%
Rainfall 0.00 in
Snow Depth Not available.
UV 0 out of 12
Pollen 4.50 out of 12
Air Quality Not available.
Flu Activity Not available.
METAR KHRL 010752Z 31006KT 10SM CLR 13/12 A3021 RMK AO2 SLP230 T01330122 $

More Conditions Fewer Conditions

10-Day Weather Forecast

Almanac

Astronomy

Nov. 01, 2014 Rise Set
Actual Time
Civil Twilight
Nautical Twilight
Astronomical Twilight
Moon
Length of Visible Light
Length of Day
Tomorrow will be .
, % of the Moon is Illuminated

Today's Extremes

State Highs State Lows

Community

WunderPhotos

Upload Photos

1,766,866 photos uploaded!

WunderBlogs® & News

Nearby

Air Quality

  Air Quality AQ Index Pollutant
Not available.

Snow Depth

Station Depth Elevation

Earthquake Activity

City Distance Mag. Time & Date
Minimum magnitude displayed is 2.5.

Coastal Water Temperatures

Place Temperature

Nearby Weather Stations